createdAt,value
2018-10-03T00:01:05.999Z,14.10
2018-10-03T00:03:33.585Z,14.10
2018-10-03T00:06:01.177Z,14.10
2018-10-03T00:08:29.013Z,14.10
2018-10-03T00:10:56.611Z,14.10
2018-10-03T00:13:24.171Z,14.00
2018-10-03T00:15:52.034Z,14.00
2018-10-03T00:18:19.577Z,14.00
2018-10-03T00:20:47.123Z,14.00
2018-10-03T00:23:15.149Z,14.00
2018-10-03T00:25:42.661Z,14.00
2018-10-03T00:28:10.300Z,14.00
2018-10-03T00:30:37.818Z,14.00
2018-10-03T00:33:05.395Z,13.90
2018-10-03T00:35:33.231Z,13.90
2018-10-03T00:38:00.842Z,13.90
2018-10-03T00:40:29.630Z,13.90
2018-10-03T00:42:57.689Z,13.90
2018-10-03T00:45:25.265Z,13.90
2018-10-03T00:47:52.924Z,13.90
2018-10-03T00:50:20.540Z,13.90
2018-10-03T00:52:48.254Z,13.90
2018-10-03T00:55:15.802Z,13.90
2018-10-03T00:57:43.332Z,13.80
2018-10-03T01:00:11.247Z,13.90
2018-10-03T01:02:38.870Z,13.80
2018-10-03T01:05:06.480Z,13.80
2018-10-03T01:07:34.250Z,13.80
2018-10-03T01:10:01.938Z,13.80
2018-10-03T01:12:29.497Z,13.80
2018-10-03T01:14:57.463Z,13.80
2018-10-03T01:17:24.975Z,13.80
2018-10-03T01:19:52.587Z,13.80
2018-10-03T01:22:20.172Z,13.80
2018-10-03T01:24:47.780Z,13.80
2018-10-03T01:27:15.277Z,13.80
2018-10-03T01:29:42.826Z,13.80
2018-10-03T01:32:10.602Z,13.80
2018-10-03T01:34:38.210Z,13.90
2018-10-03T01:37:05.892Z,13.90
2018-10-03T01:39:33.614Z,13.90
2018-10-03T01:42:01.319Z,13.90
2018-10-03T01:44:28.885Z,13.90
2018-10-03T01:46:56.741Z,13.90
2018-10-03T01:49:24.261Z,13.90
2018-10-03T01:51:51.843Z,13.90
2018-10-03T01:54:19.837Z,13.80
2018-10-03T01:56:47.369Z,13.80
2018-10-03T01:59:15.005Z,13.80
2018-10-03T02:01:42.733Z,13.80
2018-10-03T02:04:10.493Z,13.80
2018-10-03T02:06:38.066Z,13.80
2018-10-03T02:09:10.228Z,13.80
2018-10-03T02:11:38.118Z,13.80
2018-10-03T02:14:07.985Z,13.80
2018-10-03T02:16:35.778Z,13.80
2018-10-03T02:19:08.284Z,13.80
2018-10-03T02:21:36.044Z,13.80
2018-10-03T02:24:08.454Z,13.80
2018-10-03T02:26:35.978Z,13.80
2018-10-03T02:29:09.833Z,13.80
2018-10-03T02:31:37.368Z,13.80
2018-10-03T02:34:07.779Z,13.80
2018-10-03T02:36:36.369Z,13.80
2018-10-03T02:39:09.511Z,13.80
2018-10-03T02:41:37.326Z,13.80
2018-10-03T02:44:08.158Z,13.80
2018-10-03T02:46:35.954Z,13.80
2018-10-03T02:49:07.824Z,13.80
2018-10-03T02:51:35.401Z,13.80
2018-10-03T02:54:02.962Z,13.80
2018-10-03T02:56:30.665Z,13.80
2018-10-03T02:58:58.256Z,13.70
2018-10-03T03:01:26.046Z,13.80
2018-10-03T03:03:53.582Z,13.80
2018-10-03T03:06:21.089Z,13.80
2018-10-03T03:08:49.301Z,13.70
2018-10-03T03:11:16.793Z,13.70
2018-10-03T03:13:44.389Z,13.70
2018-10-03T03:16:12.566Z,13.70
2018-10-03T03:18:40.107Z,13.60
2018-10-03T03:21:07.620Z,13.60
2018-10-03T03:23:35.342Z,13.60
2018-10-03T03:26:02.886Z,13.50
2018-10-03T03:28:30.906Z,13.50
2018-10-03T03:30:58.427Z,13.50
2018-10-03T03:33:26.079Z,13.40
2018-10-03T03:35:53.687Z,13.40
2018-10-03T03:38:21.245Z,13.40
2018-10-03T03:40:48.814Z,13.30
2018-10-03T03:43:16.902Z,13.30
2018-10-03T03:45:45.018Z,13.30
2018-10-03T03:48:12.886Z,13.30
2018-10-03T03:50:40.713Z,13.30
2018-10-03T03:53:08.210Z,13.20
2018-10-03T03:55:35.709Z,13.20
2018-10-03T03:58:03.503Z,13.20
2018-10-03T04:00:31.084Z,13.20
2018-10-03T04:02:58.651Z,13.20
2018-10-03T04:05:26.170Z,13.10
2018-10-03T04:07:53.830Z,13.10
2018-10-03T04:10:21.538Z,13.10
2018-10-03T04:12:49.160Z,13.10
2018-10-03T04:15:16.727Z,13.10
2018-10-03T04:17:44.450Z,13.10
2018-10-03T04:20:12.042Z,13.00
2018-10-03T04:22:39.733Z,13.00
2018-10-03T04:25:07.652Z,13.00
2018-10-03T04:27:35.242Z,13.00
2018-10-03T04:30:02.938Z,13.00
2018-10-03T04:32:31.058Z,13.00
2018-10-03T04:34:58.595Z,13.00
2018-10-03T04:37:26.401Z,13.00
2018-10-03T04:39:54.370Z,13.00
2018-10-03T04:42:22.070Z,13.10
2018-10-03T04:44:49.606Z,13.10
2018-10-03T04:47:18.449Z,13.10
2018-10-03T04:49:45.965Z,13.20
2018-10-03T04:52:13.542Z,13.20
2018-10-03T04:54:41.335Z,13.30
2018-10-03T04:57:08.827Z,13.30
2018-10-03T04:59:36.403Z,13.30
2018-10-03T05:02:04.204Z,13.40
2018-10-03T05:04:31.736Z,13.40
2018-10-03T05:06:59.372Z,13.40
2018-10-03T05:09:27.097Z,13.50
2018-10-03T05:11:54.927Z,13.50
2018-10-03T05:14:22.454Z,13.50
2018-10-03T05:16:50.326Z,13.60
2018-10-03T05:19:17.942Z,13.60
2018-10-03T05:21:45.756Z,13.60
2018-10-03T05:24:13.294Z,13.70
2018-10-03T05:26:40.823Z,13.70
2018-10-03T05:29:15.504Z,13.70
2018-10-03T05:31:43.168Z,13.70
2018-10-03T05:34:10.886Z,13.80
2018-10-03T05:36:38.807Z,13.80
2018-10-03T05:39:09.173Z,13.80
2018-10-03T05:41:36.999Z,13.80
2018-10-03T05:44:04.882Z,13.80
2018-10-03T05:46:32.430Z,13.90
2018-10-03T05:48:59.984Z,13.90
2018-10-03T05:51:27.798Z,13.90
2018-10-03T05:53:55.306Z,13.90
2018-10-03T05:56:22.838Z,14.00
2018-10-03T05:58:50.898Z,14.00
2018-10-03T06:01:18.470Z,14.00
2018-10-03T06:03:46.045Z,14.00
2018-10-03T06:06:13.873Z,14.10
2018-10-03T06:08:41.487Z,14.10
2018-10-03T06:11:08.992Z,14.10
2018-10-03T06:13:36.889Z,14.10
2018-10-03T06:16:04.561Z,14.10
2018-10-03T06:18:32.577Z,14.20
2018-10-03T06:21:00.608Z,14.20
2018-10-03T06:23:28.549Z,14.20
2018-10-03T06:25:56.321Z,14.30
2018-10-03T06:28:23.948Z,14.30
2018-10-03T06:30:51.530Z,14.30
2018-10-03T06:33:19.381Z,14.30
2018-10-03T06:35:46.924Z,14.40
2018-10-03T06:38:14.517Z,14.40
2018-10-03T06:40:42.414Z,14.40
2018-10-03T06:43:10.071Z,14.40
2018-10-03T06:45:37.913Z,14.40
2018-10-03T06:48:05.486Z,14.40
2018-10-03T06:50:33.062Z,14.50
2018-10-03T06:53:00.918Z,14.50
2018-10-03T06:55:28.456Z,14.50
2018-10-03T06:57:56.065Z,14.50
2018-10-03T07:00:23.746Z,14.60
2018-10-03T07:02:51.266Z,14.60
2018-10-03T07:05:18.877Z,14.60
2018-10-03T07:07:46.702Z,14.70
2018-10-03T07:10:14.289Z,14.70
2018-10-03T07:12:41.885Z,14.70
2018-10-03T07:15:09.714Z,14.70
2018-10-03T07:17:37.297Z,14.60
2018-10-03T07:20:04.989Z,14.60
2018-10-03T07:22:32.799Z,14.40
2018-10-03T07:25:00.322Z,14.40
2018-10-03T07:27:27.924Z,14.30
2018-10-03T07:29:55.714Z,14.30
2018-10-03T07:32:23.268Z,14.20
2018-10-03T07:34:50.888Z,14.10
2018-10-03T07:37:18.641Z,13.90
2018-10-03T07:39:46.403Z,13.80
2018-10-03T07:42:14.250Z,13.80
2018-10-03T07:44:41.783Z,13.80
2018-10-03T07:47:09.323Z,13.80
2018-10-03T07:49:36.885Z,13.90
2018-10-03T07:52:04.419Z,14.00
2018-10-03T07:54:32.273Z,14.30
2018-10-03T07:56:59.838Z,14.50
2018-10-03T07:59:27.400Z,14.80
2018-10-03T08:01:55.160Z,15.00
2018-10-03T08:04:22.734Z,15.30
2018-10-03T08:06:50.404Z,15.50
2018-10-03T08:09:18.170Z,15.70
2018-10-03T08:11:45.686Z,15.80
2018-10-03T08:14:13.230Z,16.00
2018-10-03T08:16:41.288Z,16.10
2018-10-03T08:19:08.847Z,16.20
2018-10-03T08:21:36.648Z,16.30
2018-10-03T08:24:04.686Z,16.50
2018-10-03T08:26:32.522Z,16.60
2018-10-03T08:29:00.050Z,16.70
2018-10-03T08:31:28.358Z,16.70
2018-10-03T08:33:56.130Z,16.70
2018-10-03T08:36:25.509Z,16.70
2018-10-03T08:38:53.430Z,16.70
2018-10-03T08:41:22.124Z,16.70
2018-10-03T08:43:49.884Z,16.60
2018-10-03T08:46:18.491Z,16.60
2018-10-03T08:48:47.114Z,16.60
2018-10-03T08:51:14.829Z,16.70
2018-10-03T08:53:42.815Z,16.70
2018-10-03T08:56:10.515Z,16.70
2018-10-03T08:58:38.169Z,16.80
2018-10-03T09:01:07.162Z,16.90
2018-10-03T09:03:34.679Z,17.10
2018-10-03T09:06:02.244Z,17.30
2018-10-03T09:08:29.999Z,17.50
2018-10-03T09:10:57.554Z,17.70
2018-10-03T09:13:25.458Z,18.00
2018-10-03T09:15:53.865Z,18.30
2018-10-03T09:18:21.704Z,18.70
2018-10-03T09:20:49.289Z,19.00
2018-10-03T09:23:16.907Z,19.30
2018-10-03T09:25:44.509Z,19.50
2018-10-03T09:28:12.234Z,19.60
2018-10-03T09:30:40.226Z,19.70
2018-10-03T09:33:08.104Z,19.70
2018-10-03T09:35:35.999Z,19.80
2018-10-03T09:38:03.699Z,19.90
2018-10-03T09:40:31.284Z,20.00
2018-10-03T09:42:59.066Z,20.20
2018-10-03T09:45:26.921Z,20.50
2018-10-03T09:47:54.662Z,20.60
2018-10-03T09:50:22.187Z,20.70
2018-10-03T09:52:50.470Z,20.80
2018-10-03T09:55:18.092Z,20.80
2018-10-03T09:57:45.973Z,20.90
2018-10-03T10:00:18.122Z,20.90
2018-10-03T10:02:46.026Z,20.80
2018-10-03T10:05:13.578Z,20.80
2018-10-03T10:07:41.185Z,20.70
2018-10-03T10:10:09.136Z,20.60
2018-10-03T10:12:36.646Z,20.50
2018-10-03T10:15:04.827Z,20.40
2018-10-03T10:17:32.662Z,20.30
2018-10-03T10:20:00.273Z,20.30
2018-10-03T10:22:27.826Z,20.30
2018-10-03T10:24:55.652Z,20.40
2018-10-03T10:27:23.315Z,20.50
2018-10-03T10:29:50.814Z,20.70
2018-10-03T10:32:18.803Z,20.90
2018-10-03T10:34:46.738Z,21.10
2018-10-03T10:37:14.279Z,21.40
2018-10-03T10:39:42.043Z,21.70
2018-10-03T10:42:09.616Z,22.00
2018-10-03T10:44:37.154Z,22.10
2018-10-03T10:47:05.911Z,22.10
2018-10-03T10:49:33.417Z,22.00
2018-10-03T10:52:01.006Z,21.80
2018-10-03T10:54:28.903Z,21.70
2018-10-03T10:56:56.434Z,21.40
2018-10-03T10:59:24.018Z,21.20
2018-10-03T11:01:51.774Z,21.00
2018-10-03T11:04:19.608Z,20.90
2018-10-03T11:06:47.242Z,20.90
2018-10-03T11:09:15.195Z,21.00
2018-10-03T11:11:42.761Z,21.10
2018-10-03T11:14:11.158Z,21.30
2018-10-03T11:16:39.133Z,21.40
2018-10-03T11:19:06.998Z,21.50
2018-10-03T11:21:34.602Z,21.50
2018-10-03T11:24:02.594Z,21.40
2018-10-03T11:28:57.754Z,21.20
2018-10-03T11:31:25.501Z,21.00
2018-10-03T11:33:53.278Z,20.80
2018-10-03T11:36:21.304Z,20.60
2018-10-03T11:38:49.467Z,20.30
2018-10-03T11:41:17.075Z,20.20
2018-10-03T11:43:44.778Z,20.00
2018-10-03T11:46:12.541Z,19.90
2018-10-03T11:48:40.609Z,19.70
2018-10-03T11:51:08.338Z,19.60
2018-10-03T11:53:35.873Z,19.50
2018-10-03T11:56:05.041Z,19.50
2018-10-03T11:58:32.549Z,19.50
2018-10-03T12:01:00.118Z,19.40
2018-10-03T12:03:28.397Z,19.50
2018-10-03T12:05:56.787Z,19.50
2018-10-03T12:08:24.313Z,19.60
2018-10-03T12:10:52.012Z,19.70
2018-10-03T12:13:19.514Z,19.70
2018-10-03T12:15:47.300Z,19.70
2018-10-03T12:18:14.861Z,19.60
2018-10-03T12:20:42.363Z,19.50
2018-10-03T12:23:09.966Z,19.50
2018-10-03T12:25:37.570Z,19.50
2018-10-03T12:28:05.779Z,19.40
2018-10-03T12:30:33.398Z,19.40
2018-10-03T12:33:01.434Z,19.40
2018-10-03T12:35:35.753Z,19.30
2018-10-03T12:38:03.790Z,19.20
2018-10-03T12:40:31.839Z,19.10
2018-10-03T12:42:59.477Z,19.00
2018-10-03T12:45:28.242Z,18.80
2018-10-03T12:47:56.409Z,18.70
2018-10-03T12:50:24.130Z,18.60
2018-10-03T12:52:51.682Z,18.50
2018-10-03T12:55:19.750Z,18.30
2018-10-03T12:57:47.375Z,18.20
2018-10-03T13:00:15.100Z,18.10
2018-10-03T13:02:43.003Z,18.10
2018-10-03T13:05:10.549Z,18.00
2018-10-03T13:07:38.097Z,18.10
2018-10-03T13:10:05.964Z,18.20
2018-10-03T13:12:33.486Z,18.30
2018-10-03T13:15:01.268Z,18.40
2018-10-03T13:17:29.241Z,18.60
2018-10-03T13:19:56.858Z,18.70
2018-10-03T13:22:24.450Z,18.80
2018-10-03T13:24:53.118Z,18.90
2018-10-03T13:27:20.900Z,19.00
2018-10-03T13:29:48.461Z,19.10
2018-10-03T13:32:16.679Z,19.20
2018-10-03T13:34:44.246Z,19.30
2018-10-03T13:37:11.779Z,19.40
2018-10-03T13:39:39.433Z,19.50
2018-10-03T13:42:07.079Z,19.50
2018-10-03T13:44:35.018Z,19.60
2018-10-03T13:47:02.857Z,19.60
2018-10-03T13:49:30.731Z,19.60
2018-10-03T13:51:58.229Z,19.70
2018-10-03T13:54:26.092Z,19.70
2018-10-03T13:56:53.689Z,19.70
2018-10-03T13:59:21.232Z,19.70
2018-10-03T14:01:49.200Z,19.70
2018-10-03T14:04:16.869Z,19.70
2018-10-03T14:06:44.700Z,19.70
2018-10-03T14:09:12.555Z,19.60
2018-10-03T14:11:40.131Z,19.60
2018-10-03T14:14:07.746Z,19.50
2018-10-03T14:16:36.136Z,19.50
2018-10-03T14:19:03.815Z,19.40
2018-10-03T14:21:31.354Z,19.40
2018-10-03T14:23:59.038Z,19.30
2018-10-03T14:26:26.613Z,19.30
2018-10-03T14:28:54.195Z,19.30
2018-10-03T14:31:22.136Z,19.30
2018-10-03T14:33:49.665Z,19.20
2018-10-03T14:36:17.209Z,19.20
2018-10-03T14:38:45.031Z,19.20
2018-10-03T14:41:12.590Z,19.10
2018-10-03T14:43:40.471Z,19.10
2018-10-03T14:46:08.128Z,19.00
2018-10-03T14:48:35.706Z,19.00
2018-10-03T14:51:03.456Z,18.90
2018-10-03T14:53:31.122Z,18.90
2018-10-03T14:55:58.773Z,18.90
2018-10-03T14:58:26.713Z,18.80
2018-10-03T15:00:54.317Z,18.80
2018-10-03T15:03:22.107Z,18.70
2018-10-03T15:05:49.706Z,18.60
2018-10-03T15:08:18.231Z,18.60
2018-10-03T15:10:46.267Z,18.50
2018-10-03T15:13:14.346Z,18.40
2018-10-03T15:15:42.392Z,18.30
2018-10-03T15:18:10.449Z,18.30
2018-10-03T15:20:38.478Z,18.30
2018-10-03T15:23:06.090Z,18.20
2018-10-03T15:25:34.053Z,18.20
2018-10-03T15:28:01.598Z,18.20
2018-10-03T15:30:29.226Z,18.10
2018-10-03T15:35:24.733Z,18.00
2018-10-03T15:37:52.442Z,18.00
2018-10-03T15:40:21.069Z,18.00
2018-10-03T15:42:49.697Z,17.90
2018-10-03T15:45:17.670Z,17.90
2018-10-03T15:47:46.203Z,17.90
2018-10-03T15:50:13.777Z,17.90
2018-10-03T15:52:42.425Z,17.80
2018-10-03T15:55:10.240Z,17.80
2018-10-03T15:57:37.855Z,17.70
2018-10-03T16:00:05.805Z,17.70
2018-10-03T16:02:33.425Z,17.60
2018-10-03T16:05:01.083Z,17.60
2018-10-03T16:07:28.701Z,17.50
2018-10-03T16:09:57.339Z,17.50
2018-10-03T16:12:24.950Z,17.50
2018-10-03T16:14:52.611Z,17.40
2018-10-03T16:17:20.645Z,17.40
2018-10-03T16:19:48.282Z,17.40
2018-10-03T16:22:16.362Z,17.40
2018-10-03T16:24:43.938Z,17.30
2018-10-03T16:29:39.294Z,17.20
2018-10-03T16:34:34.489Z,17.10
2018-10-03T16:37:02.438Z,17.00
2018-10-03T16:39:30.017Z,16.90
2018-10-03T16:41:57.646Z,16.80
2018-10-03T16:44:25.261Z,16.70
2018-10-03T16:46:52.895Z,16.50
2018-10-03T16:49:20.818Z,16.40
2018-10-03T16:51:48.806Z,16.30
2018-10-03T16:54:17.238Z,16.20
2018-10-03T16:56:45.106Z,16.10
2018-10-03T16:59:12.751Z,16.00
2018-10-03T17:01:40.575Z,15.90
2018-10-03T17:04:08.572Z,15.80
2018-10-03T17:06:36.250Z,15.70
2018-10-03T17:09:05.457Z,15.60
2018-10-03T17:11:33.180Z,15.60
2018-10-03T17:14:27.622Z,15.50
2018-10-03T17:16:55.679Z,15.50
2018-10-03T17:19:24.031Z,15.50
2018-10-03T17:21:53.530Z,15.40
2018-10-03T17:24:22.618Z,15.40
2018-10-03T17:26:50.266Z,15.40
2018-10-03T17:29:18.082Z,15.40
2018-10-03T17:31:46.190Z,15.40
2018-10-03T17:34:14.588Z,15.30
2018-10-03T17:36:43.969Z,15.30
2018-10-03T17:39:11.506Z,15.30
2018-10-03T17:41:39.451Z,15.30
2018-10-03T17:44:07.149Z,15.30
2018-10-03T17:46:35.009Z,15.30
2018-10-03T17:49:02.656Z,15.30
2018-10-03T17:51:30.434Z,15.30
2018-10-03T17:53:58.417Z,15.30
2018-10-03T17:56:26.078Z,15.30
2018-10-03T17:58:53.798Z,15.30
2018-10-03T18:01:22.173Z,15.30
2018-10-03T18:03:49.715Z,15.30
2018-10-03T18:06:17.647Z,15.40
2018-10-03T18:08:45.167Z,15.40
2018-10-03T18:11:12.891Z,15.40
2018-10-03T18:13:40.794Z,15.40
2018-10-03T18:16:08.405Z,15.40
2018-10-03T18:18:36.398Z,15.50
2018-10-03T18:21:04.353Z,15.50
2018-10-03T18:23:32.175Z,15.60
2018-10-03T18:25:59.944Z,15.60
2018-10-03T18:28:28.085Z,15.60
2018-10-03T18:30:55.652Z,15.60
2018-10-03T18:33:24.398Z,15.60
2018-10-03T18:35:52.205Z,15.60
2018-10-03T18:38:19.934Z,15.60
2018-10-03T18:40:47.531Z,15.60
2018-10-03T18:43:15.267Z,15.60
2018-10-03T18:45:42.940Z,15.60
2018-10-03T18:48:10.647Z,15.60
2018-10-03T18:50:38.514Z,15.60
2018-10-03T18:53:06.165Z,15.60
2018-10-03T18:55:34.180Z,15.60
2018-10-03T18:58:02.585Z,15.60
2018-10-03T19:00:30.219Z,15.60
2018-10-03T19:02:58.062Z,15.60
2018-10-03T19:05:25.836Z,15.60
2018-10-03T19:07:53.506Z,15.50
2018-10-03T19:10:21.475Z,15.50
2018-10-03T19:12:49.323Z,15.50
2018-10-03T19:15:16.846Z,15.50
2018-10-03T19:17:44.763Z,15.50
2018-10-03T19:20:12.560Z,15.40
2018-10-03T19:22:41.058Z,15.40
2018-10-03T19:25:09.386Z,15.40
2018-10-03T19:27:37.415Z,15.30
2018-10-03T19:30:05.412Z,15.30
2018-10-03T19:32:33.038Z,15.30
2018-10-03T19:35:01.089Z,15.30
2018-10-03T19:37:28.889Z,15.20
2018-10-03T19:39:56.464Z,15.20
2018-10-03T19:42:24.290Z,15.20
2018-10-03T19:44:52.154Z,15.20
2018-10-03T19:47:19.710Z,15.20
2018-10-03T19:49:47.719Z,15.20
2018-10-03T19:52:16.093Z,15.20
2018-10-03T19:54:43.688Z,15.20
2018-10-03T19:57:12.097Z,15.20
2018-10-03T19:59:39.615Z,15.20
2018-10-03T20:02:07.607Z,15.20
2018-10-03T20:04:35.223Z,15.20
2018-10-03T20:07:03.285Z,15.20
2018-10-03T20:09:30.949Z,15.20
2018-10-03T20:11:58.768Z,15.20
2018-10-03T20:14:26.394Z,15.30
2018-10-03T20:16:54.390Z,15.30
2018-10-03T20:19:21.941Z,15.30
2018-10-03T20:21:49.742Z,15.30
2018-10-03T20:24:17.982Z,15.30
2018-10-03T20:26:45.985Z,15.30
2018-10-03T20:29:13.590Z,15.30
2018-10-03T20:31:41.166Z,15.30
2018-10-03T20:34:09.213Z,15.40
2018-10-03T20:36:36.773Z,15.40
2018-10-03T20:39:06.650Z,15.40
2018-10-03T20:41:34.343Z,15.40
2018-10-03T20:44:01.977Z,15.30
2018-10-03T20:46:29.766Z,15.40
2018-10-03T20:48:57.900Z,15.30
2018-10-03T20:51:25.641Z,15.30
2018-10-03T20:53:53.575Z,15.30
2018-10-03T20:56:21.634Z,15.30
2018-10-03T20:58:53.097Z,15.20
2018-10-03T21:01:21.731Z,15.20
2018-10-03T21:03:49.513Z,15.20
2018-10-03T21:06:17.040Z,15.20
2018-10-03T21:08:45.095Z,15.20
2018-10-03T21:11:12.995Z,15.20
2018-10-03T21:13:40.778Z,15.20
2018-10-03T21:16:08.390Z,15.20
2018-10-03T21:18:36.590Z,15.20
2018-10-03T21:21:04.374Z,15.20
2018-10-03T21:23:32.772Z,15.20
2018-10-03T21:26:01.025Z,15.20
2018-10-03T21:28:29.162Z,15.20
2018-10-03T21:30:56.758Z,15.20
2018-10-03T21:33:24.402Z,15.20
2018-10-03T21:35:52.368Z,15.20
2018-10-03T21:38:19.994Z,15.10
2018-10-03T21:40:47.534Z,15.20
2018-10-03T21:43:15.262Z,15.20
2018-10-03T21:45:42.814Z,15.20
2018-10-03T21:48:10.698Z,15.20
